sensor_id;sensor_type;location;lat;lon;timestamp;temperature;humidity
39951;DHT22;25629;51.444;-2.606;2023-01-05T00:01:26;11.40;99.90
39951;DHT22;25629;51.444;-2.606;2023-01-05T00:03:51;11.50;99.90
39951;DHT22;25629;51.444;-2.606;2023-01-05T00:06:17;11.50;99.90
39951;DHT22;25629;51.444;-2.606;2023-01-05T00:08:43;11.40;99.90
39951;DHT22;25629;51.444;-2.606;2023-01-05T00:11:19;11.50;99.90
39951;DHT22;25629;51.444;-2.606;2023-01-05T00:14:04;11.50;99.90
39951;DHT22;25629;51.444;-2.606;2023-01-05T00:16:49;11.50;99.90
39951;DHT22;25629;51.444;-2.606;2023-01-05T00:19:33;11.50;99.90
39951;DHT22;25629;51.444;-2.606;2023-01-05T00:22:21;11.60;99.90
39951;DHT22;25629;51.444;-2.606;2023-01-05T00:27:31;11.60;99.90
39951;DHT22;25629;51.444;-2.606;2023-01-05T00:29:57;11.70;99.90
39951;DHT22;25629;51.444;-2.606;2023-01-05T00:32:30;11.60;99.90
39951;DHT22;25629;51.444;-2.606;2023-01-05T00:34:57;11.70;99.90
39951;DHT22;25629;51.444;-2.606;2023-01-05T00:37:25;11.80;99.90
39951;DHT22;25629;51.444;-2.606;2023-01-05T00:39:52;11.70;99.90
39951;DHT22;25629;51.444;-2.606;2023-01-05T00:42:18;11.70;99.90
39951;DHT22;25629;51.444;-2.606;2023-01-05T00:44:44;11.70;99.90
39951;DHT22;25629;51.444;-2.606;2023-01-05T00:47:10;11.70;99.90
39951;DHT22;25629;51.444;-2.606;2023-01-05T00:49:36;11.70;99.90
39951;DHT22;25629;51.444;-2.606;2023-01-05T00:52:02;11.70;99.90
39951;DHT22;25629;51.444;-2.606;2023-01-05T00:54:28;11.80;99.90
39951;DHT22;25629;51.444;-2.606;2023-01-05T00:56:54;11.70;99.90
39951;DHT22;25629;51.444;-2.606;2023-01-05T00:59:19;11.70;99.90
39951;DHT22;25629;51.444;-2.606;2023-01-05T01:01:46;11.70;99.90
39951;DHT22;25629;51.444;-2.606;2023-01-05T01:04:12;11.70;99.90
39951;DHT22;25629;51.444;-2.606;2023-01-05T01:06:38;11.70;99.90
39951;DHT22;25629;51.444;-2.606;2023-01-05T01:09:03;11.70;99.90
39951;DHT22;25629;51.444;-2.606;2023-01-05T01:11:29;11.60;99.90
39951;DHT22;25629;51.444;-2.606;2023-01-05T01:13:55;11.70;99.90
39951;DHT22;25629;51.444;-2.606;2023-01-05T01:16:21;11.70;99.90
39951;DHT22;25629;51.444;-2.606;2023-01-05T01:18:48;11.70;99.90
39951;DHT22;25629;51.444;-2.606;2023-01-05T01:21:14;11.70;99.90
39951;DHT22;25629;51.444;-2.606;2023-01-05T01:23:39;11.60;99.90
39951;DHT22;25629;51.444;-2.606;2023-01-05T01:26:07;11.70;99.90
39951;DHT22;25629;51.444;-2.606;2023-01-05T01:28:33;11.60;99.90
39951;DHT22;25629;51.444;-2.606;2023-01-05T01:30:59;11.60;99.90
39951;DHT22;25629;51.444;-2.606;2023-01-05T01:33:25;11.60;99.90
39951;DHT22;25629;51.444;-2.606;2023-01-05T01:35:51;11.60;99.90
39951;DHT22;25629;51.444;-2.606;2023-01-05T01:38:17;11.60;99.90
39951;DHT22;25629;51.444;-2.606;2023-01-05T01:40:44;11.70;99.90
39951;DHT22;25629;51.444;-2.606;2023-01-05T01:43:38;11.60;99.90
39951;DHT22;25629;51.444;-2.606;2023-01-05T01:46:03;11.60;99.90
39951;DHT22;25629;51.444;-2.606;2023-01-05T01:48:29;11.60;99.90
39951;DHT22;25629;51.444;-2.606;2023-01-05T01:50:55;11.60;99.90
39951;DHT22;25629;51.444;-2.606;2023-01-05T01:55:51;11.60;99.90
39951;DHT22;25629;51.444;-2.606;2023-01-05T01:58:18;11.70;99.90
39951;DHT22;25629;51.444;-2.606;2023-01-05T02:00:46;11.70;99.90
39951;DHT22;25629;51.444;-2.606;2023-01-05T02:03:13;11.70;99.90
39951;DHT22;25629;51.444;-2.606;2023-01-05T02:05:39;11.70;99.90
39951;DHT22;25629;51.444;-2.606;2023-01-05T02:08:13;11.70;99.90
39951;DHT22;25629;51.444;-2.606;2023-01-05T02:10:52;11.70;99.90
39951;DHT22;25629;51.444;-2.606;2023-01-05T02:13:53;11.70;99.90
39951;DHT22;25629;51.444;-2.606;2023-01-05T02:16:27;11.70;99.90
39951;DHT22;25629;51.444;-2.606;2023-01-05T02:32:22;11.60;99.90
39951;DHT22;25629;51.444;-2.606;2023-01-05T02:37:45;11.70;99.90
39951;DHT22;25629;51.444;-2.606;2023-01-05T02:40:19;11.70;99.90
39951;DHT22;25629;51.444;-2.606;2023-01-05T02:42:48;11.70;99.90
39951;DHT22;25629;51.444;-2.606;2023-01-05T02:45:16;11.70;99.90
39951;DHT22;25629;51.444;-2.606;2023-01-05T02:47:43;11.80;99.90
39951;DHT22;25629;51.444;-2.606;2023-01-05T02:55:37;11.80;99.90
39951;DHT22;25629;51.444;-2.606;2023-01-05T02:58:11;11.80;99.90
39951;DHT22;25629;51.444;-2.606;2023-01-05T03:00:49;11.80;99.90
39951;DHT22;25629;51.444;-2.606;2023-01-05T03:06:04;11.90;99.90
39951;DHT22;25629;51.444;-2.606;2023-01-05T03:08:37;11.80;99.90
39951;DHT22;25629;51.444;-2.606;2023-01-05T03:11:09;11.80;99.90
39951;DHT22;25629;51.444;-2.606;2023-01-05T03:14:22;11.80;99.90
39951;DHT22;25629;51.444;-2.606;2023-01-05T03:16:50;11.90;99.90
39951;DHT22;25629;51.444;-2.606;2023-01-05T03:19:18;11.90;99.90
39951;DHT22;25629;51.444;-2.606;2023-01-05T03:22:03;11.90;99.90
39951;DHT22;25629;51.444;-2.606;2023-01-05T03:24:48;11.90;99.90
39951;DHT22;25629;51.444;-2.606;2023-01-05T03:27:34;12.00;99.90
39951;DHT22;25629;51.444;-2.606;2023-01-05T03:30:21;12.00;99.90
39951;DHT22;25629;51.444;-2.606;2023-01-05T03:33:23;12.00;99.90
39951;DHT22;25629;51.444;-2.606;2023-01-05T03:36:11;12.10;99.90
39951;DHT22;25629;51.444;-2.606;2023-01-05T03:38:41;12.10;99.90
39951;DHT22;25629;51.444;-2.606;2023-01-05T03:41:09;12.10;99.90
39951;DHT22;25629;51.444;-2.606;2023-01-05T03:43:35;12.10;99.90
39951;DHT22;25629;51.444;-2.606;2023-01-05T03:46:13;12.10;99.90
39951;DHT22;25629;51.444;-2.606;2023-01-05T03:48:39;12.20;99.90
39951;DHT22;25629;51.444;-2.606;2023-01-05T03:51:06;12.20;99.90
39951;DHT22;25629;51.444;-2.606;2023-01-05T03:53:31;12.10;99.90
39951;DHT22;25629;51.444;-2.606;2023-01-05T03:55:57;12.10;99.90
39951;DHT22;25629;51.444;-2.606;2023-01-05T03:58:23;12.10;99.90
39951;DHT22;25629;51.444;-2.606;2023-01-05T04:00:49;12.10;99.90
39951;DHT22;25629;51.444;-2.606;2023-01-05T04:03:15;12.00;99.90
39951;DHT22;25629;51.444;-2.606;2023-01-05T04:05:40;12.00;99.90
39951;DHT22;25629;51.444;-2.606;2023-01-05T04:08:06;11.90;99.90
39951;DHT22;25629;51.444;-2.606;2023-01-05T04:10:32;11.90;99.90
39951;DHT22;25629;51.444;-2.606;2023-01-05T04:12:58;11.90;99.90
39951;DHT22;25629;51.444;-2.606;2023-01-05T04:15:23;11.90;99.90
39951;DHT22;25629;51.444;-2.606;2023-01-05T04:17:49;12.00;99.90
39951;DHT22;25629;51.444;-2.606;2023-01-05T04:20:15;11.90;99.90
39951;DHT22;25629;51.444;-2.606;2023-01-05T04:22:41;11.90;99.90
39951;DHT22;25629;51.444;-2.606;2023-01-05T04:25:07;11.80;99.90
39951;DHT22;25629;51.444;-2.606;2023-01-05T04:27:33;11.80;99.90
39951;DHT22;25629;51.444;-2.606;2023-01-05T04:29:59;11.70;99.90
39951;DHT22;25629;51.444;-2.606;2023-01-05T04:32:24;11.60;99.90
39951;DHT22;25629;51.444;-2.606;2023-01-05T04:34:50;11.60;99.90
39951;DHT22;25629;51.444;-2.606;2023-01-05T04:37:16;11.50;99.90
39951;DHT22;25629;51.444;-2.606;2023-01-05T04:39:41;11.50;99.90
39951;DHT22;25629;51.444;-2.606;2023-01-05T04:42:07;11.50;99.90
39951;DHT22;25629;51.444;-2.606;2023-01-05T04:44:33;11.40;99.90
39951;DHT22;25629;51.444;-2.606;2023-01-05T04:46:58;11.50;99.90
39951;DHT22;25629;51.444;-2.606;2023-01-05T04:49:24;11.50;99.90
39951;DHT22;25629;51.444;-2.606;2023-01-05T04:51:50;11.50;99.90
39951;DHT22;25629;51.444;-2.606;2023-01-05T04:54:16;11.40;99.90
39951;DHT22;25629;51.444;-2.606;2023-01-05T04:56:41;11.40;99.90
39951;DHT22;25629;51.444;-2.606;2023-01-05T04:59:07;11.40;99.90
39951;DHT22;25629;51.444;-2.606;2023-01-05T05:01:33;11.40;99.90
39951;DHT22;25629;51.444;-2.606;2023-01-05T05:03:59;11.40;99.90
39951;DHT22;25629;51.444;-2.606;2023-01-05T05:06:24;11.40;99.90
39951;DHT22;25629;51.444;-2.606;2023-01-05T05:08:50;11.40;99.90
39951;DHT22;25629;51.444;-2.606;2023-01-05T05:11:16;11.40;99.90
39951;DHT22;25629;51.444;-2.606;2023-01-05T05:13:41;11.40;99.90
39951;DHT22;25629;51.444;-2.606;2023-01-05T05:16:07;11.40;99.90
39951;DHT22;25629;51.444;-2.606;2023-01-05T05:18:34;11.40;99.90
39951;DHT22;25629;51.444;-2.606;2023-01-05T05:20:59;11.30;99.90
39951;DHT22;25629;51.444;-2.606;2023-01-05T05:23:25;11.40;99.90
39951;DHT22;25629;51.444;-2.606;2023-01-05T05:25:51;11.40;99.90
39951;DHT22;25629;51.444;-2.606;2023-01-05T05:28:18;11.40;99.90
39951;DHT22;25629;51.444;-2.606;2023-01-05T05:30:44;11.30;99.90
39951;DHT22;25629;51.444;-2.606;2023-01-05T05:33:10;11.40;99.90
39951;DHT22;25629;51.444;-2.606;2023-01-05T05:35:36;11.30;99.90
39951;DHT22;25629;51.444;-2.606;2023-01-05T05:38:01;11.40;99.90
39951;DHT22;25629;51.444;-2.606;2023-01-05T05:40:27;11.30;99.90
39951;DHT22;25629;51.444;-2.606;2023-01-05T05:42:54;11.30;99.90
39951;DHT22;25629;51.444;-2.606;2023-01-05T05:45:19;11.30;99.90
39951;DHT22;25629;51.444;-2.606;2023-01-05T05:47:45;11.40;99.90
39951;DHT22;25629;51.444;-2.606;2023-01-05T05:50:12;11.40;99.90
39951;DHT22;25629;51.444;-2.606;2023-01-05T05:52:37;11.40;99.90
39951;DHT22;25629;51.444;-2.606;2023-01-05T05:55:03;11.40;99.90
39951;DHT22;25629;51.444;-2.606;2023-01-05T05:57:29;11.40;99.90
39951;DHT22;25629;51.444;-2.606;2023-01-05T05:59:55;11.50;99.90
39951;DHT22;25629;51.444;-2.606;2023-01-05T06:02:21;11.40;99.90
39951;DHT22;25629;51.444;-2.606;2023-01-05T06:04:46;11.50;99.90
39951;DHT22;25629;51.444;-2.606;2023-01-05T06:07:12;11.50;99.90
39951;DHT22;25629;51.444;-2.606;2023-01-05T06:09:38;11.50;99.90
39951;DHT22;25629;51.444;-2.606;2023-01-05T06:12:04;11.50;99.90
39951;DHT22;25629;51.444;-2.606;2023-01-05T06:14:29;11.50;99.90
39951;DHT22;25629;51.444;-2.606;2023-01-05T06:16:55;11.50;99.90
39951;DHT22;25629;51.444;-2.606;2023-01-05T06:19:21;11.50;99.90
39951;DHT22;25629;51.444;-2.606;2023-01-05T06:21:46;11.50;99.90
39951;DHT22;25629;51.444;-2.606;2023-01-05T06:24:12;11.50;99.90
39951;DHT22;25629;51.444;-2.606;2023-01-05T06:26:38;11.50;99.90
39951;DHT22;25629;51.444;-2.606;2023-01-05T06:29:03;11.50;99.90
39951;DHT22;25629;51.444;-2.606;2023-01-05T06:31:29;11.60;99.90
39951;DHT22;25629;51.444;-2.606;2023-01-05T06:33:54;11.60;99.90
39951;DHT22;25629;51.444;-2.606;2023-01-05T06:36:20;11.60;99.90
39951;DHT22;25629;51.444;-2.606;2023-01-05T06:38:46;11.60;99.90
39951;DHT22;25629;51.444;-2.606;2023-01-05T06:41:11;11.50;99.90
39951;DHT22;25629;51.444;-2.606;2023-01-05T06:43:37;11.60;99.90
39951;DHT22;25629;51.444;-2.606;2023-01-05T06:46:03;11.60;99.90
39951;DHT22;25629;51.444;-2.606;2023-01-05T06:48:28;11.60;99.90
39951;DHT22;25629;51.444;-2.606;2023-01-05T06:50:54;11.60;99.90
39951;DHT22;25629;51.444;-2.606;2023-01-05T06:53:20;11.60;99.90
39951;DHT22;25629;51.444;-2.606;2023-01-05T06:55:45;11.60;99.90
39951;DHT22;25629;51.444;-2.606;2023-01-05T06:58:11;11.60;99.90
39951;DHT22;25629;51.444;-2.606;2023-01-05T07:00:37;11.60;99.90
39951;DHT22;25629;51.444;-2.606;2023-01-05T07:03:03;11.60;99.90
39951;DHT22;25629;51.444;-2.606;2023-01-05T07:05:28;11.70;99.90
39951;DHT22;25629;51.444;-2.606;2023-01-05T07:07:54;11.70;99.90
39951;DHT22;25629;51.444;-2.606;2023-01-05T07:10:20;11.70;99.90
39951;DHT22;25629;51.444;-2.606;2023-01-05T07:12:46;11.70;99.90
39951;DHT22;25629;51.444;-2.606;2023-01-05T07:15:11;11.70;99.90
39951;DHT22;25629;51.444;-2.606;2023-01-05T07:17:37;11.80;99.90
39951;DHT22;25629;51.444;-2.606;2023-01-05T07:20:04;11.80;99.90
39951;DHT22;25629;51.444;-2.606;2023-01-05T07:22:30;11.80;99.90
39951;DHT22;25629;51.444;-2.606;2023-01-05T07:24:57;11.80;99.90
39951;DHT22;25629;51.444;-2.606;2023-01-05T07:27:24;11.90;99.90
39951;DHT22;25629;51.444;-2.606;2023-01-05T07:29:49;11.90;99.90
39951;DHT22;25629;51.444;-2.606;2023-01-05T07:32:15;11.90;99.90
39951;DHT22;25629;51.444;-2.606;2023-01-05T07:34:41;12.00;99.90
39951;DHT22;25629;51.444;-2.606;2023-01-05T07:37:06;12.00;99.90
39951;DHT22;25629;51.444;-2.606;2023-01-05T07:39:32;12.00;99.90
39951;DHT22;25629;51.444;-2.606;2023-01-05T07:41:58;12.00;99.90
39951;DHT22;25629;51.444;-2.606;2023-01-05T07:44:23;11.90;99.90
39951;DHT22;25629;51.444;-2.606;2023-01-05T07:46:49;11.90;99.90
39951;DHT22;25629;51.444;-2.606;2023-01-05T07:49:15;12.00;99.90
39951;DHT22;25629;51.444;-2.606;2023-01-05T07:51:41;12.00;99.90
39951;DHT22;25629;51.444;-2.606;2023-01-05T07:54:06;12.00;99.90
39951;DHT22;25629;51.444;-2.606;2023-01-05T07:56:32;12.00;99.90
39951;DHT22;25629;51.444;-2.606;2023-01-05T07:58:58;12.10;99.90
39951;DHT22;25629;51.444;-2.606;2023-01-05T08:01:24;12.10;99.90
39951;DHT22;25629;51.444;-2.606;2023-01-05T08:03:49;12.10;99.90
39951;DHT22;25629;51.444;-2.606;2023-01-05T08:06:17;12.20;99.90
39951;DHT22;25629;51.444;-2.606;2023-01-05T08:08:43;12.10;99.90
39951;DHT22;25629;51.444;-2.606;2023-01-05T08:11:10;12.20;99.90
39951;DHT22;25629;51.444;-2.606;2023-01-05T08:13:36;12.20;99.90
39951;DHT22;25629;51.444;-2.606;2023-01-05T08:16:21;12.10;99.90
39951;DHT22;25629;51.444;-2.606;2023-01-05T08:18:46;12.10;99.90
39951;DHT22;25629;51.444;-2.606;2023-01-05T08:21:12;12.10;99.90
39951;DHT22;25629;51.444;-2.606;2023-01-05T08:23:38;12.10;99.90
39951;DHT22;25629;51.444;-2.606;2023-01-05T08:26:15;12.10;99.90
39951;DHT22;25629;51.444;-2.606;2023-01-05T08:28:42;12.10;99.90
39951;DHT22;25629;51.444;-2.606;2023-01-05T08:31:10;12.10;99.90
39951;DHT22;25629;51.444;-2.606;2023-01-05T08:33:36;12.10;99.90
39951;DHT22;25629;51.444;-2.606;2023-01-05T08:36:10;12.10;99.90
39951;DHT22;25629;51.444;-2.606;2023-01-05T08:38:36;12.10;99.90
39951;DHT22;25629;51.444;-2.606;2023-01-05T08:41:02;12.20;99.90
39951;DHT22;25629;51.444;-2.606;2023-01-05T08:43:28;12.20;99.90
39951;DHT22;25629;51.444;-2.606;2023-01-05T08:45:53;12.20;99.90
39951;DHT22;25629;51.444;-2.606;2023-01-05T08:48:19;12.20;99.90
39951;DHT22;25629;51.444;-2.606;2023-01-05T08:50:45;12.20;99.90
39951;DHT22;25629;51.444;-2.606;2023-01-05T08:53:11;12.30;99.90
39951;DHT22;25629;51.444;-2.606;2023-01-05T08:55:37;12.30;99.90
39951;DHT22;25629;51.444;-2.606;2023-01-05T08:58:02;12.30;99.90
39951;DHT22;25629;51.444;-2.606;2023-01-05T09:00:30;12.40;99.90
39951;DHT22;25629;51.444;-2.606;2023-01-05T09:02:56;12.40;99.90
39951;DHT22;25629;51.444;-2.606;2023-01-05T09:05:22;12.40;99.90
39951;DHT22;25629;51.444;-2.606;2023-01-05T09:07:47;12.40;99.90
39951;DHT22;25629;51.444;-2.606;2023-01-05T09:10:13;12.40;99.90
39951;DHT22;25629;51.444;-2.606;2023-01-05T09:12:39;12.50;99.90
39951;DHT22;25629;51.444;-2.606;2023-01-05T09:15:05;12.50;99.90
39951;DHT22;25629;51.444;-2.606;2023-01-05T09:17:32;12.40;99.90
39951;DHT22;25629;51.444;-2.606;2023-01-05T09:20:00;12.50;99.90
39951;DHT22;25629;51.444;-2.606;2023-01-05T09:22:29;12.50;99.90
39951;DHT22;25629;51.444;-2.606;2023-01-05T09:24:54;12.50;99.90
39951;DHT22;25629;51.444;-2.606;2023-01-05T09:27:20;12.50;99.90
39951;DHT22;25629;51.444;-2.606;2023-01-05T09:29:46;12.50;99.90
39951;DHT22;25629;51.444;-2.606;2023-01-05T09:32:11;12.50;99.90
39951;DHT22;25629;51.444;-2.606;2023-01-05T09:34:37;12.50;99.90
39951;DHT22;25629;51.444;-2.606;2023-01-05T09:37:03;12.50;99.90
39951;DHT22;25629;51.444;-2.606;2023-01-05T09:39:28;12.50;99.90
39951;DHT22;25629;51.444;-2.606;2023-01-05T09:41:57;12.50;99.90
39951;DHT22;25629;51.444;-2.606;2023-01-05T09:44:49;12.60;99.90
39951;DHT22;25629;51.444;-2.606;2023-01-05T09:47:35;12.60;99.90
39951;DHT22;25629;51.444;-2.606;2023-01-05T09:50:01;12.60;99.90
39951;DHT22;25629;51.444;-2.606;2023-01-05T09:52:29;12.60;99.90
39951;DHT22;25629;51.444;-2.606;2023-01-05T09:54:55;12.60;99.90
39951;DHT22;25629;51.444;-2.606;2023-01-05T09:57:24;12.60;99.90
39951;DHT22;25629;51.444;-2.606;2023-01-05T09:59:54;12.60;99.90
39951;DHT22;25629;51.444;-2.606;2023-01-05T10:05:03;12.70;99.90
39951;DHT22;25629;51.444;-2.606;2023-01-05T10:10:02;12.70;99.90
39951;DHT22;25629;51.444;-2.606;2023-01-05T10:12:41;12.70;99.90
39951;DHT22;25629;51.444;-2.606;2023-01-05T10:15:26;12.70;99.90
39951;DHT22;25629;51.444;-2.606;2023-01-05T10:17:54;12.70;99.90
39951;DHT22;25629;51.444;-2.606;2023-01-05T10:20:39;12.80;99.90
39951;DHT22;25629;51.444;-2.606;2023-01-05T10:26:12;12.80;99.90
39951;DHT22;25629;51.444;-2.606;2023-01-05T10:29:02;12.80;99.90
39951;DHT22;25629;51.444;-2.606;2023-01-05T10:45:35;12.90;99.90
39951;DHT22;25629;51.444;-2.606;2023-01-05T10:48:02;12.90;99.90
39951;DHT22;25629;51.444;-2.606;2023-01-05T10:50:39;12.90;99.90
39951;DHT22;25629;51.444;-2.606;2023-01-05T10:58:20;12.90;99.90
39951;DHT22;25629;51.444;-2.606;2023-01-05T11:00:46;12.90;99.90
39951;DHT22;25629;51.444;-2.606;2023-01-05T11:03:14;13.00;99.90
39951;DHT22;25629;51.444;-2.606;2023-01-05T11:05:42;13.00;99.90
39951;DHT22;25629;51.444;-2.606;2023-01-05T11:08:20;13.00;99.90
39951;DHT22;25629;51.444;-2.606;2023-01-05T11:10:54;12.90;99.90
39951;DHT22;25629;51.444;-2.606;2023-01-05T11:13:36;12.90;99.90
39951;DHT22;25629;51.444;-2.606;2023-01-05T11:18:58;12.80;99.90
39951;DHT22;25629;51.444;-2.606;2023-01-05T11:21:44;12.90;99.90
39951;DHT22;25629;51.444;-2.606;2023-01-05T11:26:54;12.90;99.90
39951;DHT22;25629;51.444;-2.606;2023-01-05T11:29:21;13.00;99.90
39951;DHT22;25629;51.444;-2.606;2023-01-05T11:32:08;13.10;99.90
39951;DHT22;25629;51.444;-2.606;2023-01-05T11:34:47;13.20;99.90
39951;DHT22;25629;51.444;-2.606;2023-01-05T11:44:38;13.40;99.90
39951;DHT22;25629;51.444;-2.606;2023-01-05T11:47:06;13.50;99.90
39951;DHT22;25629;51.444;-2.606;2023-01-05T11:49:34;13.60;99.90
39951;DHT22;25629;51.444;-2.606;2023-01-05T11:52:00;13.70;99.90
39951;DHT22;25629;51.444;-2.606;2023-01-05T11:54:33;13.80;99.90
39951;DHT22;25629;51.444;-2.606;2023-01-05T11:57:16;13.80;99.90
39951;DHT22;25629;51.444;-2.606;2023-01-05T11:59:44;13.90;99.90
39951;DHT22;25629;51.444;-2.606;2023-01-05T12:07:54;14.00;99.90
39951;DHT22;25629;51.444;-2.606;2023-01-05T12:35:02;14.30;99.90
39951;DHT22;25629;51.444;-2.606;2023-01-05T12:48:34;14.20;99.90
39951;DHT22;25629;51.444;-2.606;2023-01-05T12:51:10;14.20;99.90
39951;DHT22;25629;51.444;-2.606;2023-01-05T12:53:39;14.20;99.90
39951;DHT22;25629;51.444;-2.606;2023-01-05T13:01:35;14.20;99.90
39951;DHT22;25629;51.444;-2.606;2023-01-05T13:04:10;14.10;99.90
39951;DHT22;25629;51.444;-2.606;2023-01-05T13:06:39;14.00;99.90
39951;DHT22;25629;51.444;-2.606;2023-01-05T13:09:12;13.80;99.90
39951;DHT22;25629;51.444;-2.606;2023-01-05T13:11:54;13.70;99.90
39951;DHT22;25629;51.444;-2.606;2023-01-05T13:14:26;13.50;99.90
39951;DHT22;25629;51.444;-2.606;2023-01-05T13:17:01;13.40;99.90
39951;DHT22;25629;51.444;-2.606;2023-01-05T13:19:35;13.30;99.90
39951;DHT22;25629;51.444;-2.606;2023-01-05T13:22:07;13.40;99.90
39951;DHT22;25629;51.444;-2.606;2023-01-05T13:24:49;13.50;99.90
39951;DHT22;25629;51.444;-2.606;2023-01-05T13:27:15;13.50;99.90
39951;DHT22;25629;51.444;-2.606;2023-01-05T13:29:45;13.50;99.90
39951;DHT22;25629;51.444;-2.606;2023-01-05T13:32:32;13.60;99.90
39951;DHT22;25629;51.444;-2.606;2023-01-05T13:40:43;13.90;99.90
39951;DHT22;25629;51.444;-2.606;2023-01-05T13:53:47;13.90;99.90
39951;DHT22;25629;51.444;-2.606;2023-01-05T13:56:36;14.00;99.90
39951;DHT22;25629;51.444;-2.606;2023-01-05T13:59:15;14.00;99.90
39951;DHT22;25629;51.444;-2.606;2023-01-05T14:01:45;14.00;99.90
39951;DHT22;25629;51.444;-2.606;2023-01-05T14:04:31;14.00;99.90
39951;DHT22;25629;51.444;-2.606;2023-01-05T14:07:11;14.00;99.90
39951;DHT22;25629;51.444;-2.606;2023-01-05T14:09:42;14.00;99.90
39951;DHT22;25629;51.444;-2.606;2023-01-05T14:17:50;14.00;99.90
39951;DHT22;25629;51.444;-2.606;2023-01-05T14:20:47;14.10;99.90
39951;DHT22;25629;51.444;-2.606;2023-01-05T14:26:04;14.10;99.90
39951;DHT22;25629;51.444;-2.606;2023-01-05T14:38:54;14.00;99.90
39951;DHT22;25629;51.444;-2.606;2023-01-05T14:41:24;14.10;99.90
39951;DHT22;25629;51.444;-2.606;2023-01-05T14:44:14;14.10;99.90
39951;DHT22;25629;51.444;-2.606;2023-01-05T14:46:50;14.00;99.90
39951;DHT22;25629;51.444;-2.606;2023-01-05T14:49:41;14.00;99.90
39951;DHT22;25629;51.444;-2.606;2023-01-05T14:52:19;14.00;99.90
39951;DHT22;25629;51.444;-2.606;2023-01-05T14:57:36;13.90;99.90
39951;DHT22;25629;51.444;-2.606;2023-01-05T15:06:02;13.80;99.90
39951;DHT22;25629;51.444;-2.606;2023-01-05T15:17:21;13.70;99.90
39951;DHT22;25629;51.444;-2.606;2023-01-05T15:36:56;13.70;99.90
39951;DHT22;25629;51.444;-2.606;2023-01-05T15:39:29;13.70;99.90
39951;DHT22;25629;51.444;-2.606;2023-01-05T15:41:58;13.60;99.90
39951;DHT22;25629;51.444;-2.606;2023-01-05T15:44:30;13.60;99.90
39951;DHT22;25629;51.444;-2.606;2023-01-05T15:46:56;13.60;99.90
39951;DHT22;25629;51.444;-2.606;2023-01-05T15:49:23;13.60;99.90
39951;DHT22;25629;51.444;-2.606;2023-01-05T15:51:53;13.60;99.90
39951;DHT22;25629;51.444;-2.606;2023-01-05T15:54:24;13.60;99.90
39951;DHT22;25629;51.444;-2.606;2023-01-05T15:56:50;13.60;99.90
39951;DHT22;25629;51.444;-2.606;2023-01-05T15:59:30;13.60;99.90
39951;DHT22;25629;51.444;-2.606;2023-01-05T16:01:56;13.50;99.90
39951;DHT22;25629;51.444;-2.606;2023-01-05T16:04:22;13.50;99.90
39951;DHT22;25629;51.444;-2.606;2023-01-05T16:06:53;13.40;99.90
39951;DHT22;25629;51.444;-2.606;2023-01-05T16:09:25;13.40;99.90
39951;DHT22;25629;51.444;-2.606;2023-01-05T16:11:56;13.40;99.90
39951;DHT22;25629;51.444;-2.606;2023-01-05T16:14:27;13.40;99.90
39951;DHT22;25629;51.444;-2.606;2023-01-05T16:19:43;13.30;99.90
39951;DHT22;25629;51.444;-2.606;2023-01-05T16:22:20;13.20;99.90
39951;DHT22;25629;51.444;-2.606;2023-01-05T16:25:05;13.20;99.90
39951;DHT22;25629;51.444;-2.606;2023-01-05T16:27:38;13.20;99.90
39951;DHT22;25629;51.444;-2.606;2023-01-05T16:30:33;13.20;99.90
39951;DHT22;25629;51.444;-2.606;2023-01-05T16:33:03;13.20;99.90
39951;DHT22;25629;51.444;-2.606;2023-01-05T16:49:25;13.20;99.90
39951;DHT22;25629;51.444;-2.606;2023-01-05T16:51:52;13.20;99.90
39951;DHT22;25629;51.444;-2.606;2023-01-05T16:54:28;13.20;99.90
39951;DHT22;25629;51.444;-2.606;2023-01-05T16:57:02;13.10;99.90
39951;DHT22;25629;51.444;-2.606;2023-01-05T16:59:34;13.10;99.90
39951;DHT22;25629;51.444;-2.606;2023-01-05T17:04:53;13.10;99.90
39951;DHT22;25629;51.444;-2.606;2023-01-05T17:07:19;13.10;99.90
39951;DHT22;25629;51.444;-2.606;2023-01-05T17:09:44;13.10;99.90
39951;DHT22;25629;51.444;-2.606;2023-01-05T17:12:11;13.00;99.90
39951;DHT22;25629;51.444;-2.606;2023-01-05T17:14:38;13.00;99.90
39951;DHT22;25629;51.444;-2.606;2023-01-05T17:17:08;13.00;99.90
39951;DHT22;25629;51.444;-2.606;2023-01-05T17:19:35;12.90;99.90
39951;DHT22;25629;51.444;-2.606;2023-01-05T17:22:02;12.90;99.90
39951;DHT22;25629;51.444;-2.606;2023-01-05T17:24:31;12.90;99.90
39951;DHT22;25629;51.444;-2.606;2023-01-05T17:26:57;12.90;99.90
39951;DHT22;25629;51.444;-2.606;2023-01-05T17:29:31;12.90;99.90
39951;DHT22;25629;51.444;-2.606;2023-01-05T17:31:57;12.90;99.90
39951;DHT22;25629;51.444;-2.606;2023-01-05T17:34:23;12.90;99.90
39951;DHT22;25629;51.444;-2.606;2023-01-05T17:36:49;12.90;99.90
39951;DHT22;25629;51.444;-2.606;2023-01-05T17:39:18;12.90;99.90
39951;DHT22;25629;51.444;-2.606;2023-01-05T17:41:45;12.90;99.90
39951;DHT22;25629;51.444;-2.606;2023-01-05T17:44:11;12.90;99.90
39951;DHT22;25629;51.444;-2.606;2023-01-05T17:46:40;13.00;99.90
39951;DHT22;25629;51.444;-2.606;2023-01-05T17:49:13;12.90;99.90
39951;DHT22;25629;51.444;-2.606;2023-01-05T17:51:39;12.90;99.90
39951;DHT22;25629;51.444;-2.606;2023-01-05T17:54:05;13.00;99.90
39951;DHT22;25629;51.444;-2.606;2023-01-05T17:56:30;13.00;99.90
39951;DHT22;25629;51.444;-2.606;2023-01-05T17:58:56;13.00;99.90
39951;DHT22;25629;51.444;-2.606;2023-01-05T18:01:22;13.00;99.90
39951;DHT22;25629;51.444;-2.606;2023-01-05T18:03:48;13.00;99.90
39951;DHT22;25629;51.444;-2.606;2023-01-05T18:06:13;13.00;99.90
39951;DHT22;25629;51.444;-2.606;2023-01-05T18:08:39;12.90;99.90
39951;DHT22;25629;51.444;-2.606;2023-01-05T18:11:06;12.90;99.90
39951;DHT22;25629;51.444;-2.606;2023-01-05T18:13:33;13.00;99.90
39951;DHT22;25629;51.444;-2.606;2023-01-05T18:15:58;13.00;99.90
39951;DHT22;25629;51.444;-2.606;2023-01-05T18:18:24;13.00;99.90
39951;DHT22;25629;51.444;-2.606;2023-01-05T18:20:50;13.00;99.90
39951;DHT22;25629;51.444;-2.606;2023-01-05T18:23:19;13.00;99.90
39951;DHT22;25629;51.444;-2.606;2023-01-05T18:25:45;12.90;99.90
39951;DHT22;25629;51.444;-2.606;2023-01-05T18:28:11;13.00;99.90
39951;DHT22;25629;51.444;-2.606;2023-01-05T18:30:40;13.00;99.90
39951;DHT22;25629;51.444;-2.606;2023-01-05T18:33:05;13.00;99.90
39951;DHT22;25629;51.444;-2.606;2023-01-05T18:35:31;13.00;99.90
39951;DHT22;25629;51.444;-2.606;2023-01-05T18:37:57;13.00;99.90
39951;DHT22;25629;51.444;-2.606;2023-01-05T18:40:26;13.00;99.90
39951;DHT22;25629;51.444;-2.606;2023-01-05T18:42:51;13.00;99.90
39951;DHT22;25629;51.444;-2.606;2023-01-05T18:45:17;12.90;99.90
39951;DHT22;25629;51.444;-2.606;2023-01-05T18:47:44;12.90;99.90
39951;DHT22;25629;51.444;-2.606;2023-01-05T18:50:09;12.90;99.90
39951;DHT22;25629;51.444;-2.606;2023-01-05T18:52:35;12.90;99.90
39951;DHT22;25629;51.444;-2.606;2023-01-05T18:55:01;12.90;99.90